createdAt,value
2023-04-15T00:02:33.231Z,101083.88
2023-04-15T00:05:10.901Z,101096.13
2023-04-15T00:07:48.036Z,101087.41
2023-04-15T00:10:27.226Z,101091.75
2023-04-15T00:13:13.812Z,101085.66
2023-04-15T00:16:00.203Z,101087.38
2023-04-15T00:18:27.796Z,101081.25
2023-04-15T00:20:58.514Z,101086.50
2023-04-15T00:23:28.809Z,101093.50
2023-04-15T00:25:58.626Z,101091.75
2023-04-15T00:28:29.471Z,101084.75
2023-04-15T00:31:01.231Z,101084.75
2023-04-15T00:33:29.281Z,101090.84
2023-04-15T00:36:10.772Z,101084.75
2023-04-15T00:38:47.581Z,101093.44
2023-04-15T00:41:28.301Z,101092.56
2023-04-15T00:44:01.367Z,101096.06
2023-04-15T00:46:39.798Z,101096.06
2023-04-15T00:49:12.537Z,101096.94
2023-04-15T00:51:58.129Z,101088.19
2023-04-15T00:54:26.905Z,101098.69
2023-04-15T00:57:03.471Z,101102.16
2023-04-15T00:59:42.505Z,101097.78
2023-04-15T01:02:25.876Z,101096.00
2023-04-15T01:04:54.588Z,101096.84
2023-04-15T01:07:23.373Z,101102.97
2023-04-15T01:09:57.934Z,101095.06
2023-04-15T01:12:27.429Z,101092.44
2023-04-15T01:14:57.268Z,101086.19
2023-04-15T01:17:27.894Z,101085.41
2023-04-15T01:20:01.830Z,101089.81
2023-04-15T01:22:31.813Z,101099.41
2023-04-15T01:25:10.208Z,101094.16
2023-04-15T01:27:44.392Z,101088.94
2023-04-15T01:30:11.877Z,101081.06
2023-04-15T01:32:42.005Z,101083.63
2023-04-15T01:35:10.166Z,101088.06
2023-04-15T01:37:40.113Z,101077.53
2023-04-15T01:40:08.276Z,101081.88
2023-04-15T01:42:37.709Z,101080.06
2023-04-15T01:45:07.385Z,101077.47
2023-04-15T01:47:37.517Z,101083.53
2023-04-15T01:50:11.034Z,101082.66
2023-04-15T01:52:41.930Z,101073.84
2023-04-15T01:55:15.029Z,101078.25
2023-04-15T01:57:52.138Z,101077.38
2023-04-15T02:00:19.530Z,101073.00
2023-04-15T02:02:47.006Z,101075.66
2023-04-15T02:05:14.998Z,101074.75
2023-04-15T02:07:47.746Z,101076.44
2023-04-15T02:10:16.852Z,101089.53
2023-04-15T02:12:45.233Z,101089.53
2023-04-15T02:15:12.678Z,101099.16
2023-04-15T02:17:40.095Z,101100.03
2023-04-15T02:20:09.656Z,101101.75
2023-04-15T02:22:37.121Z,101095.59
2023-04-15T02:25:04.725Z,101088.56
2023-04-15T02:27:33.200Z,101092.94
2023-04-15T02:30:00.937Z,101092.94
2023-04-15T02:32:29.392Z,101092.94
2023-04-15T02:34:56.996Z,101087.69
2023-04-15T02:37:27.521Z,101089.44
2023-04-15T02:39:57.383Z,101085.88
2023-04-15T02:42:27.972Z,101094.63
2023-04-15T02:44:55.714Z,101091.09
2023-04-15T02:47:28.550Z,101090.16
2023-04-15T02:49:58.821Z,101091.06
2023-04-15T02:52:26.511Z,101088.38
2023-04-15T02:54:57.627Z,101085.78
2023-04-15T02:57:25.092Z,101079.66
2023-04-15T03:00:21.457Z,101084.88
2023-04-15T03:02:56.853Z,101091.81
2023-04-15T03:05:25.682Z,101090.09
2023-04-15T03:07:53.035Z,101095.34
2023-04-15T03:10:21.796Z,101090.03
2023-04-15T03:12:48.976Z,101090.88
2023-04-15T03:15:21.775Z,101090.00
2023-04-15T03:17:52.130Z,101103.91
2023-04-15T03:20:19.946Z,101098.69
2023-04-15T03:22:48.538Z,101101.34
2023-04-15T03:25:16.008Z,101096.03
2023-04-15T03:27:43.546Z,101090.81
2023-04-15T03:30:12.611Z,101087.28
2023-04-15T03:32:41.045Z,101094.25
2023-04-15T03:35:12.346Z,101095.97
2023-04-15T03:37:42.195Z,101095.94
2023-04-15T03:40:13.018Z,101098.50
2023-04-15T03:42:42.832Z,101105.38
2023-04-15T03:45:13.422Z,101107.13
2023-04-15T03:47:43.358Z,101107.94
2023-04-15T03:50:18.014Z,101116.69
2023-04-15T03:52:45.932Z,101114.84
2023-04-15T03:55:13.559Z,101114.84
2023-04-15T03:57:40.715Z,101113.97
2023-04-15T04:00:14.497Z,101119.19
2023-04-15T04:02:49.724Z,101117.34
2023-04-15T04:05:20.346Z,101125.25
2023-04-15T04:07:47.996Z,101113.84
2023-04-15T04:10:15.177Z,101118.91
2023-04-15T04:12:42.510Z,101115.41
2023-04-15T04:15:10.184Z,101116.19
2023-04-15T04:17:37.550Z,101116.19
2023-04-15T04:20:05.903Z,101113.66
2023-04-15T04:22:40.900Z,101118.72
2023-04-15T04:25:08.960Z,101110.00
2023-04-15T04:27:36.642Z,101117.78
2023-04-15T04:32:52.879Z,101119.44
2023-04-15T04:35:24.836Z,101117.75
2023-04-15T04:37:58.039Z,101118.72
2023-04-15T04:40:25.349Z,101132.63
2023-04-15T04:42:55.654Z,101128.25
2023-04-15T04:45:22.933Z,101127.50
2023-04-15T04:47:56.108Z,101124.00
2023-04-15T04:50:26.279Z,101128.38
2023-04-15T04:52:56.186Z,101121.44
2023-04-15T04:55:23.461Z,101129.25
2023-04-15T04:57:56.134Z,101121.38
2023-04-15T05:00:28.807Z,101130.09
2023-04-15T05:02:59.435Z,101137.91
2023-04-15T05:05:27.313Z,101124.69
2023-04-15T05:07:56.847Z,101132.00
2023-04-15T05:10:24.161Z,101146.91
2023-04-15T05:12:54.668Z,101144.53
2023-04-15T05:15:21.950Z,101152.22
2023-04-15T05:17:51.187Z,101150.69
2023-04-15T05:20:18.449Z,101144.66
2023-04-15T05:22:54.291Z,101142.13
2023-04-15T05:25:22.701Z,101150.69
2023-04-15T05:27:50.321Z,101155.94
2023-04-15T05:30:17.953Z,101163.47
2023-04-15T05:32:45.253Z,101167.91
2023-04-15T05:35:19.373Z,101159.38
2023-04-15T05:37:57.758Z,101156.81
2023-04-15T05:40:31.995Z,101161.38
2023-04-15T05:43:04.268Z,101165.78
2023-04-15T05:45:47.316Z,101165.56
2023-04-15T05:48:23.610Z,101163.72
2023-04-15T05:51:02.205Z,101161.16
2023-04-15T05:53:33.094Z,101169.16
2023-04-15T05:56:01.227Z,101172.69
2023-04-15T05:58:30.340Z,101169.97
2023-04-15T06:01:10.102Z,101158.75
2023-04-15T06:03:40.125Z,101163.75
2023-04-15T06:06:08.052Z,101168.19
2023-04-15T06:08:37.497Z,101166.53
2023-04-15T06:11:08.119Z,101163.97
2023-04-15T06:13:41.770Z,101181.47
2023-04-15T06:16:17.427Z,101180.72
2023-04-15T06:18:44.813Z,101192.81
2023-04-15T06:21:12.253Z,101195.31
2023-04-15T06:23:43.672Z,101206.50
2023-04-15T06:26:11.784Z,101209.09
2023-04-15T06:28:46.692Z,101208.97
2023-04-15T06:31:15.843Z,101210.94
2023-04-15T06:33:46.133Z,101205.59
2023-04-15T06:36:16.920Z,101204.00
2023-04-15T06:38:54.522Z,101198.66
2023-04-15T06:41:22.217Z,101209.94
2023-04-15T06:43:55.610Z,101204.75
2023-04-15T06:46:26.090Z,101203.84
2023-04-15T06:48:56.125Z,101203.88
2023-04-15T06:51:26.182Z,101204.75
2023-04-15T06:54:01.633Z,101198.41
2023-04-15T06:56:30.883Z,101206.34
2023-04-15T06:58:58.700Z,101222.09
2023-04-15T07:01:31.791Z,101235.06
2023-04-15T07:03:59.524Z,101222.03
2023-04-15T07:06:30.172Z,101215.06
2023-04-15T07:09:06.334Z,101232.59
2023-04-15T07:11:33.858Z,101227.31
2023-04-15T07:14:10.317Z,101231.03
2023-04-15T07:16:40.499Z,101229.34
2023-04-15T07:19:07.836Z,101230.94
2023-04-15T07:21:35.065Z,101233.81
2023-04-15T07:24:11.421Z,101228.59
2023-04-15T07:26:43.539Z,101228.53
2023-04-15T07:29:11.041Z,101228.56
2023-04-15T07:31:42.505Z,101239.97
2023-04-15T07:34:13.400Z,101234.56
2023-04-15T07:36:43.881Z,101230.28
2023-04-15T07:39:11.284Z,101231.56
2023-04-15T07:41:52.508Z,101236.03
2023-04-15T07:44:22.682Z,101238.78
2023-04-15T07:46:56.900Z,101244.78
2023-04-15T07:49:34.453Z,101246.19
2023-04-15T07:52:04.648Z,101244.47
2023-04-15T07:54:33.879Z,101248.75
2023-04-15T07:57:01.734Z,101234.03
2023-04-15T07:59:31.456Z,101236.97
2023-04-15T08:02:02.072Z,101239.75
2023-04-15T08:04:34.869Z,101242.44
2023-04-15T08:07:05.366Z,101240.97
2023-04-15T08:09:34.255Z,101251.53
2023-04-15T08:12:01.614Z,101248.84
2023-04-15T08:14:37.994Z,101235.91
2023-04-15T08:17:05.933Z,101232.41
2023-04-15T08:19:33.921Z,101238.53
2023-04-15T08:22:10.833Z,101236.19
2023-04-15T08:24:45.449Z,101231.16
2023-04-15T08:27:17.822Z,101232.97
2023-04-15T08:29:51.592Z,101231.41
2023-04-15T08:32:21.748Z,101228.75
2023-04-15T08:34:51.957Z,101229.69
2023-04-15T08:37:19.358Z,101221.75
2023-04-15T08:39:46.663Z,101226.13
2023-04-15T08:42:18.736Z,101222.50
2023-04-15T08:44:48.653Z,101230.41
2023-04-15T08:47:21.092Z,101207.66
2023-04-15T08:49:54.355Z,101217.13
2023-04-15T08:52:26.810Z,101217.78
2023-04-15T08:55:02.639Z,101230.97
2023-04-15T08:57:38.561Z,101231.88
2023-04-15T09:00:19.420Z,101230.13
2023-04-15T09:02:57.171Z,101228.16
2023-04-15T09:05:26.422Z,101231.56
2023-04-15T09:07:54.931Z,101228.53
2023-04-15T09:10:22.813Z,101226.84
2023-04-15T09:12:50.428Z,101222.06
2023-04-15T09:15:20.484Z,101213.88
2023-04-15T09:17:48.983Z,101201.28
2023-04-15T09:20:24.181Z,101206.34
2023-04-15T09:22:52.600Z,101190.13
2023-04-15T09:25:35.056Z,101199.19
2023-04-15T09:28:03.527Z,101187.06
2023-04-15T09:30:38.324Z,101193.34
2023-04-15T09:33:08.902Z,101189.66
2023-04-15T09:35:37.269Z,101176.19
2023-04-15T09:38:12.447Z,101174.19
2023-04-15T09:40:44.265Z,101169.63
2023-04-15T09:43:19.813Z,101171.22
2023-04-15T09:45:56.363Z,101172.78
2023-04-15T09:48:31.322Z,101181.13
2023-04-15T09:51:02.707Z,101175.34
2023-04-15T09:53:44.568Z,101186.44
2023-04-15T09:56:13.116Z,101185.16
2023-04-15T09:59:10.619Z,101187.25
2023-04-15T10:02:00.724Z,101182.34
2023-04-15T10:04:40.222Z,101169.19
2023-04-15T10:07:18.603Z,101171.69
2023-04-15T10:09:52.449Z,101165.91
2023-04-15T10:15:39.533Z,101159.59
2023-04-15T10:18:26.408Z,101158.91
2023-04-15T10:21:06.856Z,101148.66
2023-04-15T10:26:50.817Z,101151.38
2023-04-15T10:29:35.094Z,101167.09
2023-04-15T10:32:11.017Z,101178.63
2023-04-15T10:34:44.458Z,101181.00
2023-04-15T10:37:39.270Z,101197.72
2023-04-15T10:40:31.960Z,101195.09
2023-04-15T10:43:20.022Z,101193.00
2023-04-15T10:46:04.310Z,101200.63
2023-04-15T10:49:07.045Z,101196.31
2023-04-15T10:52:01.872Z,101192.16
2023-04-15T10:54:36.589Z,101192.09
2023-04-15T10:57:12.495Z,101195.81
2023-04-15T11:00:13.353Z,101188.75
2023-04-15T11:03:11.725Z,101184.59
2023-04-15T11:05:41.916Z,101183.22
2023-04-15T11:08:13.323Z,101191.13
2023-04-15T11:10:48.252Z,101168.81
2023-04-15T11:13:32.688Z,101175.03
2023-04-15T11:16:05.908Z,101176.25
2023-04-15T11:18:56.196Z,101171.03
2023-04-15T11:22:03.014Z,101171.78
2023-04-15T11:24:54.015Z,101161.59
2023-04-15T11:27:41.210Z,101161.94
2023-04-15T11:30:44.768Z,101174.28
2023-04-15T11:33:15.256Z,101159.28
2023-04-15T11:35:55.288Z,101155.47
2023-04-15T11:38:46.298Z,101155.09
2023-04-15T11:41:32.526Z,101143.47
2023-04-15T11:44:17.199Z,101136.59
2023-04-15T11:47:32.404Z,101144.66
2023-04-15T11:50:21.342Z,101140.53
2023-04-15T11:53:09.232Z,101133.28
2023-04-15T11:55:54.290Z,101130.97
2023-04-15T11:58:38.698Z,101118.97
2023-04-15T12:01:21.804Z,101126.78
2023-04-15T12:04:13.649Z,101127.28
2023-04-15T12:06:43.993Z,101114.19
2023-04-15T12:12:12.663Z,101122.25
2023-04-15T12:14:51.832Z,101119.41
2023-04-15T12:17:31.934Z,101118.47
2023-04-15T12:20:50.629Z,101119.75
2023-04-15T12:23:37.446Z,101131.50
2023-04-15T12:26:13.736Z,101128.16
2023-04-15T12:28:47.165Z,101129.19
2023-04-15T12:31:43.267Z,101112.47
2023-04-15T12:34:15.180Z,101132.19
2023-04-15T12:36:51.245Z,101121.72
2023-04-15T12:39:40.965Z,101120.25
2023-04-15T12:45:15.481Z,101115.53
2023-04-15T12:48:09.069Z,101125.59
2023-04-15T12:50:45.412Z,101128.00
2023-04-15T12:53:21.730Z,101137.81
2023-04-15T12:55:54.052Z,101133.19
2023-04-15T13:01:10.872Z,101126.25
2023-04-15T13:03:52.432Z,101138.69
2023-04-15T13:06:21.850Z,101140.88
2023-04-15T13:08:58.291Z,101124.88
2023-04-15T13:11:36.227Z,101127.44
2023-04-15T13:14:18.225Z,101123.78
2023-04-15T13:16:45.891Z,101119.34
2023-04-15T13:19:14.431Z,101114.91
2023-04-15T13:22:05.738Z,101113.13
2023-04-15T13:24:33.346Z,101113.47
2023-04-15T13:27:08.652Z,101108.78
2023-04-15T13:29:47.350Z,101114.81
2023-04-15T13:32:20.908Z,101109.59
2023-04-15T13:34:51.434Z,101101.22
2023-04-15T13:37:31.815Z,101094.41
2023-04-15T13:39:59.174Z,101103.41
2023-04-15T13:42:31.997Z,101107.72
2023-04-15T13:45:02.282Z,101113.53
2023-04-15T13:47:34.524Z,101128.69
2023-04-15T13:50:05.991Z,101128.91
2023-04-15T13:52:41.055Z,101114.47
2023-04-15T13:55:20.625Z,101114.69
2023-04-15T14:00:49.030Z,101122.88
2023-04-15T14:03:26.635Z,101136.50
2023-04-15T14:06:05.726Z,101126.63
2023-04-15T14:08:47.195Z,101128.88
2023-04-15T14:11:14.527Z,101125.56
2023-04-15T14:13:53.956Z,101129.44
2023-04-15T14:16:27.296Z,101135.72
2023-04-15T14:19:03.215Z,101147.22
2023-04-15T14:21:46.137Z,101153.34
2023-04-15T14:27:28.877Z,101146.59
2023-04-15T14:29:59.285Z,101144.16
2023-04-15T14:32:57.464Z,101148.91
2023-04-15T14:35:30.677Z,101140.03
2023-04-15T14:38:04.697Z,101140.78
2023-04-15T14:40:45.028Z,101144.09
2023-04-15T14:43:15.314Z,101153.50
2023-04-15T14:45:51.905Z,101159.66
2023-04-15T14:48:32.386Z,101162.38
2023-04-15T14:51:07.135Z,101171.84
2023-04-15T14:53:45.761Z,101171.84
2023-04-15T14:56:19.980Z,101172.28
2023-04-15T14:58:53.247Z,101179.44
2023-04-15T15:01:33.640Z,101181.53
2023-04-15T15:04:07.294Z,101167.81
2023-04-15T15:06:35.123Z,101171.09
2023-04-15T15:09:04.556Z,101178.91
2023-04-15T15:11:36.961Z,101166.84
2023-04-15T15:14:04.227Z,101173.78
2023-04-15T15:16:37.582Z,101188.88
2023-04-15T15:19:05.373Z,101187.00
2023-04-15T15:21:32.713Z,101188.81
2023-04-15T15:23:59.965Z,101180.09
2023-04-15T15:26:31.026Z,101183.63
2023-04-15T15:28:58.837Z,101194.31
2023-04-15T15:31:33.992Z,101195.91
2023-04-15T15:34:01.441Z,101195.28
2023-04-15T15:36:34.984Z,101204.22
2023-04-15T15:39:14.470Z,101206.72
2023-04-15T15:41:41.890Z,101212.84
2023-04-15T15:44:09.273Z,101205.88
2023-04-15T15:46:37.850Z,101212.13
2023-04-15T15:49:13.421Z,101217.38
2023-04-15T15:54:41.362Z,101233.16
2023-04-15T15:57:08.833Z,101232.25
2023-04-15T16:05:25.456Z,101236.69
2023-04-15T16:07:57.365Z,101249.84
2023-04-15T16:10:27.851Z,101241.06
2023-04-15T16:13:08.856Z,101249.84
2023-04-15T16:15:42.806Z,101250.72
2023-04-15T16:18:22.788Z,101247.19
2023-04-15T16:20:58.610Z,101235.81
2023-04-15T16:23:41.836Z,101255.06
2023-04-15T16:26:42.807Z,101247.19
2023-04-15T16:29:16.819Z,101255.97
2023-04-15T16:31:58.746Z,101253.34
2023-04-15T16:34:50.651Z,101256.84
2023-04-15T16:37:22.582Z,101261.25
2023-04-15T16:40:00.005Z,101266.44
2023-04-15T16:42:38.319Z,101250.72
2023-04-15T16:45:12.822Z,101250.72
2023-04-15T16:47:46.677Z,101259.47
2023-04-15T16:50:16.571Z,101269.09
2023-04-15T16:52:47.536Z,101271.75
2023-04-15T16:55:15.910Z,101281.38
2023-04-15T16:58:01.415Z,101276.94
2023-04-15T17:00:36.525Z,101277.88
2023-04-15T17:03:09.774Z,101283.06
2023-04-15T17:05:40.111Z,101284.00
2023-04-15T17:08:10.919Z,101286.59
2023-04-15T17:10:41.883Z,101294.50
2023-04-15T17:13:11.658Z,101292.72
2023-04-15T17:15:42.393Z,101305.88
2023-04-15T17:18:18.724Z,101292.78
2023-04-15T17:20:52.152Z,101291.03
2023-04-15T17:23:36.384Z,101294.41
2023-04-15T17:26:48.709Z,101302.28
2023-04-15T17:29:43.392Z,101292.66
2023-04-15T17:32:23.493Z,101298.78
2023-04-15T17:37:55.854Z,101301.31
2023-04-15T17:40:23.350Z,101309.16
2023-04-15T17:42:59.189Z,101302.03
2023-04-15T17:45:29.065Z,101296.91
2023-04-15T17:48:07.693Z,101301.25
2023-04-15T17:50:42.703Z,101309.09
2023-04-15T17:53:12.846Z,101307.34
2023-04-15T17:55:42.904Z,101313.44
2023-04-15T17:58:10.176Z,101322.25
2023-04-15T18:00:40.335Z,101320.53
2023-04-15T18:05:48.710Z,101314.47
2023-04-15T18:08:16.130Z,101313.63
2023-04-15T18:10:45.827Z,101314.44
2023-04-15T18:13:15.337Z,101308.28
2023-04-15T18:15:51.110Z,101317.78
2023-04-15T18:18:24.564Z,101313.47
2023-04-15T18:20:54.578Z,101309.09
2023-04-15T18:23:29.227Z,101312.31
2023-04-15T18:26:16.054Z,101321.31
2023-04-15T18:28:43.397Z,101322.09
2023-04-15T18:31:24.277Z,101328.25
2023-04-15T18:33:51.414Z,101326.59
2023-04-15T18:36:21.073Z,101332.63
2023-04-15T18:38:48.318Z,101343.25
2023-04-15T18:41:15.701Z,101343.31
2023-04-15T18:43:47.366Z,101338.94
2023-04-15T18:46:23.860Z,101351.13
2023-04-15T18:48:56.438Z,101347.69
2023-04-15T18:54:08.422Z,101373.03
2023-04-15T18:56:41.282Z,101376.53
2023-04-15T18:59:29.615Z,101381.84
2023-04-15T19:02:01.551Z,101379.88
2023-04-15T19:04:31.185Z,101380.78
2023-04-15T19:06:59.388Z,101385.03
2023-04-15T19:09:29.910Z,101394.00
2023-04-15T19:11:59.711Z,101398.31
2023-04-15T19:14:37.754Z,101405.38
2023-04-15T19:17:05.505Z,101408.88
2023-04-15T19:19:33.574Z,101403.66
2023-04-15T19:22:07.192Z,101414.22
2023-04-15T19:24:38.423Z,101428.09
2023-04-15T19:27:13.783Z,101427.47
2023-04-15T19:29:44.123Z,101427.78
2023-04-15T19:32:11.538Z,101428.53
2023-04-15T19:34:41.647Z,101433.03
2023-04-15T19:37:08.910Z,101432.13
2023-04-15T19:39:38.856Z,101439.00
2023-04-15T19:42:10.985Z,101434.75
2023-04-15T19:44:50.336Z,101437.41
2023-04-15T19:47:17.743Z,101449.66
2023-04-15T19:49:50.926Z,101446.13
2023-04-15T19:52:29.916Z,101442.66
2023-04-15T19:55:00.530Z,101456.66
2023-04-15T19:57:35.980Z,101477.66
2023-04-15T20:00:08.065Z,101482.03
2023-04-15T20:02:40.782Z,101486.59
2023-04-15T20:05:17.495Z,101484.84
2023-04-15T20:07:51.984Z,101483.06
2023-04-15T20:10:31.059Z,101493.47
2023-04-15T20:13:06.499Z,101501.56
2023-04-15T20:15:43.010Z,101499.50
2023-04-15T20:18:16.264Z,101500.25
2023-04-15T20:20:47.781Z,101487.25
2023-04-15T20:23:14.989Z,101485.66
2023-04-15T20:25:42.765Z,101490.66
2023-04-15T20:28:10.239Z,101507.22
2023-04-15T20:30:39.597Z,101518.13
2023-04-15T20:33:11.688Z,101527.97
2023-04-15T20:35:41.275Z,101541.22
2023-04-15T20:38:11.862Z,101547.06
2023-04-15T20:40:41.600Z,101547.09
2023-04-15T20:43:11.258Z,101552.63
2023-04-15T20:45:39.301Z,101569.09
2023-04-15T20:48:07.295Z,101571.72
2023-04-15T20:50:39.331Z,101574.16
2023-04-15T20:53:06.575Z,101584.84
2023-04-15T20:55:34.207Z,101582.16
2023-04-15T20:58:04.593Z,101589.00
2023-04-15T21:00:35.140Z,101592.53
2023-04-15T21:03:06.192Z,101582.91
2023-04-15T21:08:34.787Z,101587.84
2023-04-15T21:11:04.315Z,101594.81
2023-04-15T21:13:35.685Z,101606.19
2023-04-15T21:16:14.618Z,101606.09
2023-04-15T21:18:56.181Z,101601.03
2023-04-15T21:21:28.906Z,101595.84
2023-04-15T21:24:00.065Z,101606.34
2023-04-15T21:26:32.080Z,101605.44
2023-04-15T21:29:22.023Z,101607.91
2023-04-15T21:31:59.120Z,101606.06
2023-04-15T21:34:34.206Z,101610.56
2023-04-15T21:37:04.226Z,101608.69
2023-04-15T21:39:36.782Z,101623.69
2023-04-15T21:42:16.484Z,101627.22
2023-04-15T21:44:46.862Z,101622.84
2023-04-15T21:47:18.249Z,101625.19
2023-04-15T21:50:08.416Z,101629.81
2023-04-15T21:52:58.461Z,101635.06
2023-04-15T21:55:32.642Z,101630.03
2023-04-15T21:58:00.648Z,101621.22
2023-04-15T22:00:40.957Z,101623.03
2023-04-15T22:03:16.460Z,101628.16
2023-04-15T22:05:53.169Z,101627.34
2023-04-15T22:08:38.634Z,101624.75
2023-04-15T22:11:28.237Z,101619.34
2023-04-15T22:14:10.607Z,101631.69
2023-04-15T22:16:43.493Z,101628.25
2023-04-15T22:19:19.218Z,101638.69
2023-04-15T22:21:51.774Z,101640.13
2023-04-15T22:24:34.309Z,101629.50
2023-04-15T22:27:16.841Z,101634.06
2023-04-15T22:29:50.936Z,101631.63
2023-04-15T22:32:30.980Z,101633.47
2023-04-15T22:35:01.825Z,101636.09
2023-04-15T22:37:45.430Z,101651.41
2023-04-15T22:40:14.202Z,101649.69
2023-04-15T22:42:41.894Z,101659.41
2023-04-15T22:45:09.954Z,101653.19
2023-04-15T22:47:51.336Z,101664.44
2023-04-15T22:50:18.812Z,101669.59
2023-04-15T22:52:52.514Z,101665.50
2023-04-15T22:55:20.053Z,101658.25
2023-04-15T22:57:50.063Z,101657.44
2023-04-15T23:00:24.264Z,101664.41
2023-04-15T23:03:11.362Z,101662.91
2023-04-15T23:05:43.210Z,101663.72
2023-04-15T23:08:14.514Z,101660.88
2023-04-15T23:10:46.117Z,101644.53
2023-04-15T23:13:13.664Z,101644.34
2023-04-15T23:15:41.257Z,101648.16
2023-04-15T23:18:08.738Z,101652.66
2023-04-15T23:20:39.262Z,101645.97
2023-04-15T23:23:06.593Z,101647.66
2023-04-15T23:25:33.979Z,101652.88
2023-04-15T23:28:01.886Z,101661.81
2023-04-15T23:30:29.315Z,101663.50
2023-04-15T23:32:58.481Z,101667.06
2023-04-15T23:35:29.816Z,101663.47
2023-04-15T23:37:57.414Z,101673.09
2023-04-15T23:40:24.761Z,101670.63
2023-04-15T23:42:52.207Z,101667.00
2023-04-15T23:45:24.770Z,101669.63
2023-04-15T23:47:54.146Z,101661.59
2023-04-15T23:50:21.417Z,101671.22
2023-04-15T23:52:52.048Z,101673.72
2023-04-15T23:55:21.947Z,101671.16
2023-04-15T23:57:56.773Z,101680.91
